Time;durP1;ratioP1;P1;durP2;ratioP2;P2;SDS_P1;SDS_P2;PMS_P1;PMS_P2;Temp;Humidity;BMP_temperature;BMP_pressure;BME280_temperature;BME280_humidity;BME280_pressure;Samples;Min_cycle;Max_cycle;Signal;HPM_P1;HPM_P2
2023/06/13 00:00:42;;;;;;;5.68;3.00;;;;;;;20.82;44.92;101047.06;6275114;22;20050;-78
2023/06/13 00:03:13;;;;;;;5.43;3.00;;;;;;;20.72;44.93;101052.88;6249605;22;20083;-78
2023/06/13 00:05:45;;;;;;;11.45;3.30;;;;;;;20.74;45.51;101061.03;6249629;22;20023;-78
2023/06/13 00:08:17;;;;;;;3.88;3.20;;;;;;;20.64;45.36;101052.06;6274626;22;20094;-77
2023/06/13 00:10:44;;;;;;;9.77;3.38;;;;;;;20.65;45.91;101059.38;6274271;22;20011;-77
2023/06/13 00:13:10;;;;;;;9.45;3.90;;;;;;;20.52;46.20;101059.94;6274284;22;20095;-77
2023/06/13 00:15:35;;;;;;;4.78;3.60;;;;;;;20.23;47.49;101049.47;6272994;22;20008;-77
2023/06/13 00:18:01;;;;;;;5.72;3.10;;;;;;;20.39;46.78;101050.25;6274846;22;20015;-78
2023/06/13 00:20:29;;;;;;;5.22;3.30;;;;;;;20.31;47.07;101055.84;6273369;22;20046;-77
2023/06/13 00:22:56;;;;;;;11.13;3.45;;;;;;;20.24;47.08;101056.78;6247899;22;20018;-77
2023/06/13 00:25:21;;;;;;;9.88;3.03;;;;;;;20.12;47.58;101050.72;6247739;22;20153;-77
2023/06/13 00:27:46;;;;;;;5.60;3.00;;;;;;;20.00;47.87;101045.56;6273707;22;20070;-77
2023/06/13 00:30:12;;;;;;;4.55;3.17;;;;;;;19.99;47.62;101037.41;6247266;22;20078;-77
2023/06/13 00:32:37;;;;;;;4.88;3.25;;;;;;;19.95;47.84;101044.34;6275567;22;20012;-77
2023/06/13 00:35:03;;;;;;;4.88;3.13;;;;;;;19.83;48.22;101043.88;6272684;22;20042;-77
2023/06/13 00:37:29;;;;;;;10.40;3.65;;;;;;;19.90;48.12;101041.25;6273966;22;20014;-78
2023/06/13 00:39:54;;;;;;;5.03;3.00;;;;;;;19.81;47.97;101034.84;6273345;22;20042;-77
2023/06/13 00:42:21;;;;;;;5.43;3.20;;;;;;;19.78;48.13;101035.22;6274168;22;20149;-78
2023/06/13 00:44:46;;;;;;;7.53;3.70;;;;;;;19.77;48.34;101030.69;6273460;22;20019;-78
2023/06/13 00:47:13;;;;;;;5.43;3.80;;;;;;;19.74;48.53;101033.78;6274168;22;20008;-77
2023/06/13 00:49:41;;;;;;;4.25;3.38;;;;;;;19.64;48.68;101039.53;6273853;22;20344;-78
2023/06/13 00:52:08;;;;;;;7.32;3.67;;;;;;;19.64;49.22;101026.53;6273696;22;20199;-78
2023/06/13 00:54:37;;;;;;;7.85;3.80;;;;;;;19.64;49.24;101029.31;6224607;22;20066;-78
2023/06/13 00:57:05;;;;;;;15.68;4.20;;;;;;;19.58;49.49;101035.56;6276058;22;20011;-78
2023/06/13 00:59:30;;;;;;;8.73;4.03;;;;;;;19.51;49.86;101028.09;6275902;22;20372;-77
2023/06/13 01:01:56;;;;;;;6.43;3.72;;;;;;;19.45;50.29;101036.09;6275479;22;20089;-77
2023/06/13 01:04:22;;;;;;;3.80;3.20;;;;;;;19.34;49.99;101032.81;6276297;22;20047;-77
2023/06/13 01:06:49;;;;;;;6.00;3.40;;;;;;;19.42;50.51;101024.47;6274679;22;20441;-78
2023/06/13 01:09:16;;;;;;;4.70;3.10;;;;;;;19.24;51.45;101021.88;6274514;22;20091;-78
2023/06/13 01:11:48;;;;;;;7.97;3.63;;;;;;;19.14;51.94;101030.41;6249044;22;20012;-77
2023/06/13 01:14:43;;;;;;;9.07;4.35;;;;;;;18.99;52.53;101027.44;6276056;22;20173;-78
2023/06/13 01:17:15;;;;;;;5.43;3.47;;;;;;;18.92;52.90;101030.03;6274681;22;20008;-77
2023/06/13 01:19:43;;;;;;;9.38;3.72;;;;;;;18.81;53.12;101021.16;6276353;22;20374;-77
2023/06/13 01:22:22;;;;;;;5.22;3.50;;;;;;;18.87;53.18;101015.81;6274468;22;20018;-78
2023/06/13 01:25:07;;;;;;;10.98;3.70;;;;;;;18.92;52.62;101020.81;6274585;22;20011;-77
2023/06/13 01:27:35;;;;;;;5.75;2.92;;;;;;;18.98;52.67;101017.38;6273723;22;20007;-78
2023/06/13 01:30:03;;;;;;;6.88;3.92;;;;;;;18.96;53.08;101018.59;6247933;22;20012;-78
2023/06/13 01:32:30;;;;;;;14.63;3.75;;;;;;;18.76;54.22;101020.78;6276167;22;20012;-77
2023/06/13 01:34:56;;;;;;;6.90;3.65;;;;;;;18.77;53.86;101022.53;6274671;22;20019;-77
2023/06/13 01:37:21;;;;;;;18.58;3.70;;;;;;;18.70;53.44;101014.88;6273393;22;20016;-77
2023/06/13 01:39:47;;;;;;;4.85;3.75;;;;;;;18.79;53.10;101020.44;6276235;22;20007;-77
2023/06/13 01:42:12;;;;;;;3.55;3.25;;;;;;;18.76;53.16;101024.44;6273859;22;20022;-78
2023/06/13 01:44:38;;;;;;;3.85;3.30;;;;;;;18.68;53.80;101018.88;6223668;22;20459;-78
2023/06/13 01:47:22;;;;;;;6.05;3.75;;;;;;;18.60;55.12;101024.41;6274439;22;20004;-78
2023/06/13 01:49:57;;;;;;;5.63;3.50;;;;;;;18.63;55.05;101019.38;6273990;22;20014;-78
2023/06/13 01:52:36;;;;;;;6.40;3.70;;;;;;;18.51;56.04;101024.41;6248652;22;20015;-78
2023/06/13 01:55:12;;;;;;;7.85;3.60;;;;;;;18.59;55.09;101017.97;6248947;22;20015;-78
2023/06/13 01:57:43;;;;;;;4.28;3.40;;;;;;;18.35;56.61;101008.56;6275419;22;20014;-78
2023/06/13 02:00:13;;;;;;;5.60;3.63;;;;;;;18.45;55.35;101007.56;6274230;22;20103;-77
2023/06/13 02:02:40;;;;;;;4.85;3.65;;;;;;;18.37;55.87;101005.63;6274369;22;20446;-78
2023/06/13 02:05:08;;;;;;;7.22;3.33;;;;;;;18.31;56.81;101009.06;6248183;22;20137;-78
2023/06/13 02:07:36;;;;;;;10.32;3.70;;;;;;;18.37;56.29;101006.50;6275815;22;20080;-78
2023/06/13 02:10:05;;;;;;;5.93;3.53;;;;;;;18.34;56.78;101000.44;6274484;22;20046;-78
2023/06/13 02:12:32;;;;;;;14.20;3.78;;;;;;;18.19;57.63;101009.38;6275950;22;20037;-78
2023/06/13 02:14:57;;;;;;;8.00;3.45;;;;;;;18.21;58.00;101006.44;6274192;22;20078;-77
2023/06/13 02:17:23;;;;;;;5.63;3.88;;;;;;;18.27;56.85;101002.16;6248353;22;20032;-77
2023/06/13 02:19:49;;;;;;;4.20;3.47;;;;;;;18.20;57.78;101007.50;6275554;22;20431;-77
2023/06/13 02:22:15;;;;;;;8.65;3.72;;;;;;;18.03;58.59;101005.69;6274136;22;20011;-77
2023/06/13 02:24:40;;;;;;;4.97;3.55;;;;;;;17.98;59.11;101012.59;6273867;22;20004;-78
2023/06/13 02:27:06;;;;;;;4.53;3.03;;;;;;;17.96;59.76;101011.03;6247643;22;20015;-78
2023/06/13 02:29:33;;;;;;;6.72;3.72;;;;;;;17.96;59.58;101006.34;6274682;22;20015;-77
2023/06/13 02:32:01;;;;;;;7.07;3.85;;;;;;;17.89;60.20;101005.28;6248390;22;20012;-77
2023/06/13 02:34:27;;;;;;;5.55;4.30;;;;;;;17.92;61.03;101015.16;6273465;22;20042;-78
2023/06/13 02:36:52;;;;;;;6.50;4.05;;;;;;;17.83;60.75;101017.84;6272414;22;20350;-77
2023/06/13 02:39:18;;;;;;;6.43;3.90;;;;;;;17.75;61.39;101011.41;6274815;22;20011;-78
2023/06/13 02:41:43;;;;;;;7.78;3.70;;;;;;;17.72;62.28;101020.91;6273310;22;20016;-77
2023/06/13 02:44:09;;;;;;;7.35;3.95;;;;;;;17.67;62.36;101020.53;6274927;22;20023;-78
2023/06/13 02:46:34;;;;;;;9.63;4.00;;;;;;;17.67;62.45;101012.22;6246956;22;20004;-77
2023/06/13 02:49:00;;;;;;;6.30;4.00;;;;;;;17.60;63.37;101022.22;6272754;22;20043;-77
2023/06/13 02:51:26;;;;;;;6.53;3.60;;;;;;;17.55;64.21;101014.41;6272766;22;20077;-77
2023/06/13 02:53:51;;;;;;;8.02;4.30;;;;;;;17.58;64.05;101016.84;6272930;22;20419;-77
2023/06/13 02:56:16;;;;;;;5.78;4.10;;;;;;;17.60;64.98;101017.53;6271543;22;20011;-78
2023/06/13 02:58:45;;;;;;;6.68;4.15;;;;;;;17.64;64.64;101015.31;6247513;22;20011;-78
2023/06/13 03:01:12;;;;;;;11.88;4.10;;;;;;;17.54;65.80;101009.03;6271768;22;20018;-78
2023/06/13 03:03:37;;;;;;;9.73;3.90;;;;;;;17.48;66.18;101006.91;6248150;22;20019;-77
2023/06/13 03:06:04;;;;;;;6.32;4.25;;;;;;;17.39;66.07;101014.28;6271656;22;20011;-77
2023/06/13 03:08:30;;;;;;;9.93;3.95;;;;;;;17.42;65.63;101014.84;6248137;22;20011;-78
2023/06/13 03:10:56;;;;;;;5.72;3.63;;;;;;;17.30;67.57;101009.72;6274510;22;20086;-78
2023/06/13 03:13:22;;;;;;;15.48;4.20;;;;;;;17.37;66.10;101013.59;6272752;22;20012;-78
2023/06/13 03:15:47;;;;;;;7.28;4.05;;;;;;;17.45;66.52;101011.75;6247566;22;20012;-78
2023/06/13 03:18:14;;;;;;;5.78;4.00;;;;;;;17.44;66.36;101009.13;6274159;22;20090;-78
2023/06/13 03:20:46;;;;;;;10.05;4.40;;;;;;;17.31;67.91;101009.56;6274038;22;20016;-77
2023/06/13 03:23:15;;;;;;;6.50;4.78;;;;;;;17.33;67.54;101007.53;6274926;22;20008;-77
2023/06/13 03:25:41;;;;;;;6.60;4.13;;;;;;;17.24;68.04;101005.72;6273092;22;20102;-77
2023/06/13 03:28:07;;;;;;;11.15;4.78;;;;;;;17.19;68.90;101013.63;6272441;22;20061;-77
2023/06/13 03:30:35;;;;;;;5.82;4.40;;;;;;;17.12;69.11;100995.91;6274169;22;20008;-77
2023/06/13 03:33:01;;;;;;;6.78;4.50;;;;;;;17.12;68.96;101005.09;6248099;22;20004;-77
2023/06/13 03:35:27;;;;;;;11.93;3.97;;;;;;;17.28;67.76;101009.88;6273334;22;20016;-77
2023/06/13 03:37:52;;;;;;;7.32;4.68;;;;;;;17.44;65.76;101012.75;6274708;22;20098;-77
2023/06/13 03:40:18;;;;;;;7.68;4.60;;;;;;;17.31;68.01;101006.78;6221731;22;20016;-78
2023/06/13 03:42:44;;;;;;;5.43;4.82;;;;;;;17.28;68.32;100998.81;6275065;22;20015;-77
2023/06/13 03:45:09;;;;;;;9.57;4.20;;;;;;;17.27;69.21;101006.25;6221865;22;20435;-77
2023/06/13 03:47:35;;;;;;;4.97;4.45;;;;;;;17.33;68.81;100996.44;6273797;22;20011;-77
2023/06/13 03:50:01;;;;;;;8.82;4.13;;;;;;;17.40;66.68;101003.06;6274380;22;20013;-77
2023/06/13 03:52:26;;;;;;;10.73;4.13;;;;;;;17.47;66.58;101003.28;6274579;22;20086;-77
2023/06/13 03:54:52;;;;;;;15.52;4.45;;;;;;;17.52;66.21;100997.25;6246186;22;20094;-77
2023/06/13 03:57:17;;;;;;;11.02;4.78;;;;;;;17.39;67.65;100994.91;6274144;22;20012;-76
2023/06/13 03:59:43;;;;;;;9.90;4.43;;;;;;;17.30;69.25;101001.41;6274569;22;20011;-77
2023/06/13 04:02:08;;;;;;;9.85;5.15;;;;;;;17.30;70.05;100999.53;6221307;22;20489;-76
2023/06/13 04:04:34;;;;;;;12.52;4.82;;;;;;;17.25;71.29;101001.94;6272421;22;20018;-78
2023/06/13 04:07:05;;;;;;;9.25;4.55;;;;;;;17.24;70.64;101005.72;6274290;22;20091;-78
2023/06/13 04:09:31;;;;;;;8.45;3.95;;;;;;;17.22;71.22;101005.88;6274513;22;20015;-77
2023/06/13 04:11:56;;;;;;;10.30;4.72;;;;;;;17.21;73.03;101006.03;6247920;22;20014;-77
2023/06/13 04:14:22;;;;;;;9.13;4.78;;;;;;;17.20;72.54;101010.72;6272988;22;20343;-77
2023/06/13 04:16:47;;;;;;;5.80;4.38;;;;;;;17.25;73.13;101016.63;6274944;22;20012;-77
2023/06/13 04:19:18;;;;;;;5.53;4.18;;;;;;;17.22;73.62;101008.63;6285750;22;20015;-76
2023/06/13 04:21:47;;;;;;;7.10;4.93;;;;;;;17.32;73.71;101019.63;6280861;22;20459;-78
2023/06/13 04:24:16;;;;;;;7.15;4.82;;;;;;;17.32;74.34;101010.44;6280617;22;20126;-76
2023/06/13 04:26:45;;;;;;;9.48;4.70;;;;;;;17.50;71.95;101019.56;6276630;22;20003;-76
2023/06/13 04:29:13;;;;;;;9.73;4.47;;;;;;;17.51;71.93;101023.19;6276090;22;20053;-75
2023/06/13 04:31:39;;;;;;;13.75;5.22;;;;;;;17.55;72.70;101019.94;6278787;22;20041;-76
2023/06/13 04:34:07;;;;;;;7.75;4.88;;;;;;;17.56;74.88;101029.09;6275387;22;20027;-76
2023/06/13 04:36:33;;;;;;;7.63;5.05;;;;;;;17.53;74.00;101030.31;6273456;22;20016;-77
2023/06/13 04:39:06;;;;;;;12.38;5.35;;;;;;;17.57;72.69;101014.25;6271549;22;20058;-76
2023/06/13 04:41:37;;;;;;;11.02;5.75;;;;;;;17.71;72.76;101021.06;6273680;22;20042;-76
2023/06/13 04:44:09;;;;;;;8.82;5.28;;;;;;;17.75;74.07;101019.72;6272228;22;20031;-77
2023/06/13 04:46:37;;;;;;;11.27;5.57;;;;;;;17.70;75.00;101025.75;6274437;22;20004;-76
2023/06/13 04:49:04;;;;;;;10.73;5.40;;;;;;;17.86;71.59;101022.19;6274447;22;20070;-76
2023/06/13 04:51:30;;;;;;;15.77;5.80;;;;;;;17.88;72.51;101022.94;6272609;22;20016;-77
2023/06/13 04:53:59;;;;;;;14.27;5.63;;;;;;;17.86;72.45;101024.97;6270742;22;20016;-76
2023/06/13 04:56:28;;;;;;;8.73;5.68;;;;;;;17.87;71.96;101026.72;6274129;22;20034;-76
2023/06/13 04:58:55;;;;;;;7.82;5.40;;;;;;;17.91;70.21;101035.59;6271662;22;20375;-77
2023/06/13 05:01:26;;;;;;;15.95;5.72;;;;;;;17.89;72.67;101040.41;6244641;22;20012;-77
2023/06/13 05:03:53;;;;;;;12.40;5.72;;;;;;;17.98;71.00;101039.44;6273847;22;20312;-77
2023/06/13 05:06:22;;;;;;;11.98;5.60;;;;;;;18.01;70.28;101041.88;6272257;22;20422;-76
2023/06/13 05:08:47;;;;;;;11.85;5.97;;;;;;;18.07;70.04;101037.56;6272294;22;20015;-77
2023/06/13 05:11:13;;;;;;;11.40;5.13;;;;;;;18.10;68.42;101045.53;6247075;22;20443;-76
2023/06/13 05:13:38;;;;;;;14.07;4.82;;;;;;;18.05;69.71;101039.63;6273684;22;20375;-78
2023/06/13 05:16:04;;;;;;;10.27;5.53;;;;;;;18.25;69.24;101041.13;6273084;22;20015;-78
2023/06/13 05:18:31;;;;;;;9.50;4.80;;;;;;;18.42;69.50;101041.19;6274411;22;20444;-78
2023/06/13 05:20:58;;;;;;;6.55;4.82;;;;;;;18.56;67.67;101034.94;6273576;22;20094;-78
2023/06/13 05:23:23;;;;;;;12.50;5.10;;;;;;;18.81;67.10;101043.34;6273252;22;20004;-77
2023/06/13 05:25:49;;;;;;;11.02;5.22;;;;;;;19.24;64.50;101038.53;6270430;22;20072;-78
2023/06/13 05:28:16;;;;;;;14.05;5.35;;;;;;;19.48;63.81;101037.66;6272683;22;20088;-78
2023/06/13 05:30:42;;;;;;;8.95;4.82;;;;;;;19.63;62.06;101038.66;6272186;22;20019;-78
2023/06/13 05:33:08;;;;;;;5.75;4.90;;;;;;;19.55;62.53;101044.25;6247830;22;20012;-79
2023/06/13 05:35:33;;;;;;;6.32;4.78;;;;;;;19.84;63.34;101040.06;6272116;22;20007;-79
2023/06/13 05:38:02;;;;;;;12.23;5.50;;;;;;;19.84;63.45;101042.84;6270482;22;20024;-79
2023/06/13 05:40:27;;;;;;;6.90;4.68;;;;;;;20.51;62.15;101045.16;6275411;22;20008;-78
2023/06/13 05:42:53;;;;;;;6.90;4.25;;;;;;;20.99;59.41;101033.94;6273941;22;20450;-78
2023/06/13 05:45:21;;;;;;;11.20;4.30;;;;;;;21.04;59.33;101042.59;6273314;22;20020;-79
2023/06/13 05:47:46;;;;;;;8.00;4.50;;;;;;;21.13;57.33;101039.75;6275990;22;20339;-78
2023/06/13 05:50:12;;;;;;;8.18;5.03;;;;;;;21.27;56.81;101047.28;6273458;22;20012;-78
2023/06/13 05:52:37;;;;;;;5.72;4.25;;;;;;;21.66;54.02;101049.00;6274227;22;20319;-78
2023/06/13 05:55:04;;;;;;;6.10;4.63;;;;;;;21.56;54.48;101056.78;6247312;22;20046;-79
2023/06/13 05:57:40;;;;;;;11.25;4.00;;;;;;;21.72;55.06;101052.97;6275592;22;20030;-78
2023/06/13 06:00:12;;;;;;;7.18;4.32;;;;;;;21.74;53.99;101051.75;6273635;22;20011;-79
2023/06/13 06:02:42;;;;;;;13.15;4.15;;;;;;;22.05;51.78;101052.63;6248625;22;20086;-78
2023/06/13 06:05:11;;;;;;;13.23;4.88;;;;;;;22.33;51.72;101050.91;6275633;22;20011;-79
2023/06/13 06:07:37;;;;;;;5.78;4.65;;;;;;;22.66;50.15;101060.75;6273681;22;20014;-79
2023/06/13 06:10:04;;;;;;;8.77;4.47;;;;;;;22.62;51.11;101062.22;6273501;22;20007;-80
2023/06/13 06:12:29;;;;;;;9.45;4.72;;;;;;;23.07;49.97;101054.56;6271851;22;20011;-78
2023/06/13 06:14:54;;;;;;;6.90;4.68;;;;;;;23.03;49.39;101058.81;6271263;22;20462;-80
2023/06/13 06:17:20;;;;;;;10.60;5.03;;;;;;;23.13;50.58;101063.00;6271903;22;20022;-79
2023/06/13 06:19:47;;;;;;;9.15;4.65;;;;;;;23.19;49.80;101052.13;6244994;22;20007;-78
2023/06/13 06:22:13;;;;;;;9.50;5.50;;;;;;;23.04;49.05;101054.97;6245909;22;20016;-78
2023/06/13 06:24:39;;;;;;;10.18;5.22;;;;;;;23.62;48.29;101058.50;6271369;22;20455;-79
2023/06/13 06:27:05;;;;;;;8.98;4.97;;;;;;;23.68;49.05;101054.91;6272158;22;20079;-79
2023/06/13 06:29:31;;;;;;;8.55;4.72;;;;;;;23.71;47.29;101062.03;6217919;22;20026;-80
2023/06/13 06:31:57;;;;;;;7.97;4.53;;;;;;;23.82;47.92;101046.59;6270952;22;20016;-78
2023/06/13 06:34:22;;;;;;;6.93;4.47;;;;;;;23.88;47.46;101050.56;6247486;22;20419;-79
2023/06/13 06:36:47;;;;;;;6.70;4.90;;;;;;;24.86;44.56;101058.78;6275020;22;20007;-78
2023/06/13 06:39:13;;;;;;;10.10;4.57;;;;;;;24.97;44.65;101060.13;6273459;22;20026;-79
2023/06/13 06:41:38;;;;;;;8.82;5.00;;;;;;;24.49;46.34;101055.41;6247482;22;20016;-79
2023/06/13 06:44:04;;;;;;;12.82;4.93;;;;;;;25.06;44.83;101058.88;6271599;22;20463;-79
2023/06/13 06:46:29;;;;;;;12.23;4.63;;;;;;;24.81;46.56;101055.78;6273631;22;20011;-78
2023/06/13 06:48:55;;;;;;;7.10;4.43;;;;;;;24.57;46.32;101058.06;6273455;22;20022;-77
2023/06/13 06:51:20;;;;;;;6.28;3.92;;;;;;;25.25;44.23;101059.97;6274417;22;20043;-78
2023/06/13 06:53:46;;;;;;;10.18;4.60;;;;;;;25.34;44.44;101058.72;6274028;22;20133;-77
2023/06/13 06:56:11;;;;;;;6.68;4.70;;;;;;;25.44;43.72;101061.94;6274788;22;20347;-77
2023/06/13 06:58:37;;;;;;;7.78;4.70;;;;;;;25.57;42.98;101060.25;6272648;22;20011;-77
2023/06/13 07:01:02;;;;;;;8.75;4.38;;;;;;;25.37;43.60;101051.84;6274713;22;20022;-77
2023/06/13 07:03:28;;;;;;;8.40;4.88;;;;;;;25.33;44.40;101045.75;6274941;22;20011;-77
2023/06/13 07:05:53;;;;;;;10.52;4.15;;;;;;;25.98;43.24;101050.72;6274637;22;20027;-78
2023/06/13 07:08:19;;;;;;;8.63;4.35;;;;;;;26.35;42.49;101053.84;6272485;22;20023;-78
2023/06/13 07:10:44;;;;;;;6.45;4.05;;;;;;;25.79;43.01;101046.84;6273292;22;20012;-78
2023/06/13 07:13:10;;;;;;;4.72;4.28;;;;;;;25.90;43.10;101056.53;6247492;22;20099;-78
2023/06/13 07:15:35;;;;;;;8.25;4.47;;;;;;;25.85;42.54;101060.84;6271363;22;20490;-78
2023/06/13 07:18:05;;;;;;;12.07;4.45;;;;;;;26.62;41.48;101056.56;6272677;22;20514;-78
2023/06/13 07:20:30;;;;;;;13.48;3.72;;;;;;;27.02;41.64;101062.00;6246694;22;20011;-78
2023/06/13 07:22:55;;;;;;;6.43;4.30;;;;;;;26.84;39.91;101059.94;6274649;22;20309;-78
2023/06/13 07:25:21;;;;;;;10.75;4.90;;;;;;;26.99;39.90;101066.13;6245027;22;20119;-78
2023/06/13 07:27:46;;;;;;;11.10;4.25;;;;;;;26.64;40.74;101069.31;6272444;22;20014;-77
2023/06/13 07:30:12;;;;;;;8.45;4.13;;;;;;;26.84;40.72;101068.38;6248126;22;20449;-78
2023/06/13 07:32:37;;;;;;;6.88;4.40;;;;;;;26.84;40.48;101073.97;6272299;22;20008;-77
2023/06/13 07:35:03;;;;;;;6.43;4.32;;;;;;;26.86;40.69;101072.69;6274651;22;20471;-77
2023/06/13 07:37:28;;;;;;;10.77;3.72;;;;;;;27.09;40.85;101071.25;6273660;22;20016;-77
2023/06/13 07:39:54;;;;;;;12.57;4.07;;;;;;;26.72;40.64;101076.66;6274215;22;20012;-77
2023/06/13 07:42:19;;;;;;;5.90;3.78;;;;;;;27.31;38.49;101068.97;6273837;22;20035;-77
2023/06/13 07:44:45;;;;;;;4.03;2.85;;;;;;;27.44;37.39;101068.00;6274218;22;20161;-77
2023/06/13 07:47:10;;;;;;;12.35;3.53;;;;;;;27.14;37.98;101066.66;6272094;22;20033;-77
2023/06/13 07:49:36;;;;;;;5.97;3.63;;;;;;;27.04;37.79;101074.75;6272895;22;20028;-76
2023/06/13 07:52:01;;;;;;;7.72;3.72;;;;;;;27.44;36.66;101068.00;6274161;22;20023;-77
2023/06/13 07:54:27;;;;;;;14.40;3.70;;;;;;;27.44;37.80;101063.25;6244873;22;20011;-78
2023/06/13 07:56:52;;;;;;;9.07;3.95;;;;;;;28.05;37.84;101070.06;6271375;22;20015;-78
2023/06/13 07:59:18;;;;;;;7.60;3.50;;;;;;;27.67;37.06;101062.59;6272240;22;20015;-78
2023/06/13 08:01:43;;;;;;;8.13;3.38;;;;;;;27.68;37.36;101061.53;6270530;22;20710;-78
2023/06/13 08:04:09;;;;;;;6.10;3.40;;;;;;;28.17;35.97;101064.53;6271796;22;20411;-78
2023/06/13 08:06:35;;;;;;;5.43;3.97;;;;;;;28.50;34.99;101068.03;6273621;22;20331;-78
2023/06/13 08:09:00;;;;;;;11.05;3.75;;;;;;;29.06;35.96;101064.06;6273394;22;20046;-78
2023/06/13 08:11:26;;;;;;;7.72;3.83;;;;;;;28.24;35.73;101067.28;6273352;22;20007;-78
2023/06/13 08:13:51;;;;;;;6.47;3.20;;;;;;;28.14;36.72;101065.00;6274070;22;20014;-78
2023/06/13 08:16:17;;;;;;;7.97;3.30;;;;;;;28.37;35.15;101075.56;6246221;22;20019;-78
2023/06/13 08:18:43;;;;;;;5.97;3.00;;;;;;;29.33;34.04;101078.66;6273115;22;20045;-78
2023/06/13 08:21:08;;;;;;;5.55;3.72;;;;;;;28.63;33.63;101072.69;6246600;22;20007;-79
2023/06/13 08:23:34;;;;;;;7.43;3.40;;;;;;;27.96;35.29;101071.47;6274153;22;20012;-79
2023/06/13 08:25:59;;;;;;;5.55;3.03;;;;;;;28.60;35.45;101063.63;6274263;22;20015;-79
2023/06/13 08:28:25;;;;;;;10.18;3.40;;;;;;;29.07;34.83;101065.78;6272845;22;20034;-78
2023/06/13 08:30:51;;;;;;;7.72;3.05;;;;;;;29.01;33.04;101075.22;6272127;22;20012;-78
2023/06/13 08:33:17;;;;;;;6.25;3.10;;;;;;;28.82;33.21;101065.91;6271017;22;20061;-78
2023/06/13 08:35:42;;;;;;;3.92;3.15;;;;;;;29.40;31.66;101060.75;6196057;22;20012;-78
2023/06/13 08:38:08;;;;;;;7.05;3.53;;;;;;;28.90;33.48;101061.91;6271255;22;20015;-80
2023/06/13 08:40:33;;;;;;;4.40;2.83;;;;;;;28.72;33.39;101058.03;6244942;22;20038;-79
2023/06/13 08:43:00;;;;;;;10.68;3.22;;;;;;;29.29;32.47;101065.28;6273202;22;20027;-79
2023/06/13 08:45:27;;;;;;;5.40;3.13;;;;;;;29.30;31.82;101075.44;6246523;22;20011;-79
2023/06/13 08:47:53;;;;;;;7.40;3.10;;;;;;;29.61;31.60;101056.50;6272231;22;20008;-78
2023/06/13 08:50:24;;;;;;;4.15;2.88;;;;;;;29.35;32.85;101058.66;6273648;22;20004;-78
2023/06/13 08:52:50;;;;;;;6.67;3.37;;;;;;;29.07;32.12;101057.34;6273938;22;20459;-78
2023/06/13 08:55:21;;;;;;;9.32;3.60;;;;;;;28.78;33.40;101054.25;6273474;22;20249;-79
2023/06/13 08:57:52;;;;;;;6.43;3.10;;;;;;;29.22;33.67;101059.75;6246420;22;20083;-79
2023/06/13 09:00:18;;;;;;;6.90;3.17;;;;;;;29.27;31.86;101050.53;6273432;22;20387;-79
2023/06/13 09:02:45;;;;;;;7.10;2.90;;;;;;;29.00;32.89;101045.28;6272191;22;20007;-79
2023/06/13 09:05:18;;;;;;;7.22;3.08;;;;;;;29.64;30.99;101048.38;6272995;22;20396;-79
2023/06/13 09:07:46;;;;;;;3.95;2.88;;;;;;;29.30;30.67;101045.28;6269000;22;20014;-78
2023/06/13 09:10:13;;;;;;;5.85;3.15;;;;;;;29.31;32.18;101049.81;6245486;22;20014;-78
2023/06/13 09:12:45;;;;;;;6.47;2.88;;;;;;;29.44;31.37;101048.75;6272887;22;20091;-78
2023/06/13 09:15:10;;;;;;;;;;;;;;;29.20;32.71;101052.59;6272413;22;20007;-78
2023/06/13 09:17:36;;;;;;;11.18;3.10;;;;;;;29.14;31.25;101045.94;6272090;22;19919;-78
2023/06/13 09:20:06;;;;;;;10.27;3.25;;;;;;;29.44;31.32;101054.38;6274272;22;20026;-78
2023/06/13 09:22:35;;;;;;;8.18;3.00;;;;;;;29.51;31.36;101063.59;6247673;22;20097;-78
2023/06/13 09:25:04;;;;;;;8.80;2.80;;;;;;;29.24;31.06;101054.72;6245699;22;20012;-78
2023/06/13 09:27:29;;;;;;;3.45;3.15;;;;;;;29.79;31.17;101047.09;6245216;22;20316;-78
2023/06/13 09:29:59;;;;;;;6.00;3.20;;;;;;;29.28;31.13;101052.25;6273140;22;20007;-78
2023/06/13 09:32:25;;;;;;;6.20;2.88;;;;;;;28.74;31.52;101049.34;6274485;22;20502;-78
2023/06/13 09:34:51;;;;;;;7.35;3.35;;;;;;;29.53;32.23;101054.88;6273061;22;20039;-78
2023/06/13 09:37:17;;;;;;;4.50;3.30;;;;;;;29.79;31.38;101061.19;6274846;22;20069;-79
2023/06/13 09:39:47;;;;;;;3.30;2.88;;;;;;;29.77;30.09;101052.94;6247670;22;20007;-78
2023/06/13 09:42:13;;;;;;;4.93;2.90;;;;;;;29.43;31.45;101058.28;6271967;22;20060;-78
2023/06/13 09:44:39;;;;;;;8.85;4.03;;;;;;;29.80;30.97;101052.50;6223191;22;20054;-78
2023/06/13 09:47:04;;;;;;;9.35;3.13;;;;;;;29.56;30.53;101054.41;6274517;22;20012;-78
2023/06/13 09:49:30;;;;;;;4.47;2.83;;;;;;;29.33;30.69;101050.47;6273927;22;20609;-77
2023/06/13 09:52:00;;;;;;;3.95;2.97;;;;;;;29.58;29.11;101045.69;6275023;22;20090;-78
2023/06/13 09:54:31;;;;;;;10.38;3.40;;;;;;;29.64;30.48;101039.91;6246627;22;20011;-78
2023/06/13 09:56:57;;;;;;;4.00;2.90;;;;;;;29.78;30.01;101051.88;6273044;22;20061;-78
2023/06/13 09:59:22;;;;;;;7.00;2.90;;;;;;;29.94;30.39;101040.94;6273511;22;20431;-78
2023/06/13 10:01:48;;;;;;;9.40;2.95;;;;;;;29.46;30.61;101038.06;6272704;22;20019;-79
2023/06/13 10:04:14;;;;;;;9.43;3.10;;;;;;;29.40;29.06;101038.19;6274988;22;20019;-78
2023/06/13 10:06:41;;;;;;;7.15;2.95;;;;;;;29.95;28.67;101042.69;6274547;22;20308;-79
2023/06/13 10:09:07;;;;;;;5.57;3.33;;;;;;;29.66;28.26;101045.31;6272824;22;20012;-78
2023/06/13 10:11:34;;;;;;;15.15;3.10;;;;;;;29.70;28.13;101050.25;6272365;22;20082;-78
2023/06/13 10:14:05;;;;;;;4.32;2.75;;;;;;;29.68;28.76;101043.16;6273152;22;20075;-78
2023/06/13 10:16:35;;;;;;;3.53;2.92;;;;;;;29.70;28.96;101033.31;6247001;22;20344;-78
2023/06/13 10:19:04;;;;;;;7.72;2.88;;;;;;;30.13;28.33;101028.41;6274921;22;20007;-78
2023/06/13 10:21:30;;;;;;;7.80;2.40;;;;;;;29.90;28.56;101034.94;6271531;22;20035;-78
2023/06/13 10:23:57;;;;;;;5.88;3.00;;;;;;;29.94;28.37;101040.94;6271187;22;20462;-79
2023/06/13 10:26:50;;;;;;;3.60;2.60;;;;;;;29.64;29.32;101034.28;6246008;22;20004;-78
2023/06/13 10:29:34;;;;;;;;;;;;;;;30.04;29.59;101038.34;6272445;22;20034;-79
2023/06/13 10:32:09;;;;;;;7.60;2.85;;;;;;;30.14;28.09;101040.56;6273799;22;19906;-79
2023/06/13 10:34:55;;;;;;;4.72;3.00;;;;;;;30.08;28.79;101033.94;6273254;22;20008;-78
2023/06/13 10:37:59;;;;;;;4.57;2.83;;;;;;;30.44;28.06;101029.13;6270756;22;20008;-79
2023/06/13 10:40:45;;;;;;;5.10;2.75;;;;;;;30.09;28.85;101034.78;6274317;22;20086;-78
2023/06/13 10:43:25;;;;;;;6.88;2.78;;;;;;;30.38;27.88;101035.75;6274683;22;20099;-79
2023/06/13 10:45:52;;;;;;;6.05;2.85;;;;;;;30.23;27.85;101037.09;6247642;22;20012;-79
2023/06/13 10:48:37;;;;;;;13.00;2.95;;;;;;;29.90;27.43;101023.66;6272633;22;20027;-79
2023/06/13 10:51:07;;;;;;;2.85;2.63;;;;;;;29.68;28.45;101035.53;6272703;22;20004;-78
2023/06/13 10:53:33;;;;;;;7.03;2.72;;;;;;;29.71;28.38;101031.34;6247788;22;20061;-78
2023/06/13 10:56:03;;;;;;;5.20;2.38;;;;;;;29.45;27.40;101027.91;6272878;22;20035;-78
2023/06/13 10:58:30;;;;;;;6.10;2.90;;;;;;;29.75;27.71;101020.44;6274456;22;20008;-79
2023/06/13 11:00:55;;;;;;;6.13;2.83;;;;;;;29.95;28.62;101022.91;6273587;22;20007;-82
2023/06/13 11:03:29;;;;;;;4.07;2.67;;;;;;;29.48;28.04;101024.59;6273489;22;20063;-80
2023/06/13 11:05:54;;;;;;;5.32;3.10;;;;;;;29.79;28.16;101025.34;6273131;22;20019;-79
2023/06/13 11:08:22;;;;;;;4.47;2.60;;;;;;;30.40;27.87;101019.41;6272920;22;20069;-79
2023/06/13 11:10:50;;;;;;;6.70;3.00;;;;;;;30.34;27.81;101017.56;6275561;22;20007;-79
2023/06/13 11:13:23;;;;;;;5.35;2.85;;;;;;;30.28;27.79;101008.09;6274430;22;20076;-79
2023/06/13 11:16:31;;;;;;;6.70;3.30;;;;;;;30.47;28.19;101002.31;6266779;22;20011;-79
2023/06/13 11:18:57;;;;;;;6.55;2.88;;;;;;;31.08;27.31;100991.38;6255857;22;20464;-79
2023/06/13 11:21:22;;;;;;;7.97;3.22;;;;;;;30.73;28.54;101003.69;6213356;22;20015;-79
2023/06/13 11:23:54;;;;;;;6.63;2.95;;;;;;;30.74;27.57;101000.59;6242478;22;20008;-79
2023/06/13 11:26:21;;;;;;;8.95;2.88;;;;;;;30.89;26.56;100994.38;6246211;22;20020;-77